Time;durP1;ratioP1;P1;durP2;ratioP2;P2;SDS_P1;SDS_P2;PMS_P1;PMS_P2;Temp;Humidity;BMP_temperature;BMP_pressure;BME280_temperature;BME280_humidity;BME280_pressure;Samples;Min_cycle;Max_cycle;Signal;HPM_P1;HPM_P2
2022/04/08 00:00:20;;;;;;;7.50;2.97;;;;;;;;;;2101312;28;20327;-59
2022/04/08 00:01:21;;;;;;;6.87;2.80;;;;;;;;;;2100075;28;20170;-58
2022/04/08 00:02:22;;;;;;;4.27;3.17;;;;;;;;;;2091963;28;20270;-60
2022/04/08 00:03:28;;;;;;;2.75;2.55;;;;;;;;;;2098200;28;20167;-57
2022/04/08 00:04:30;;;;;;;5.93;2.90;;;;;;;;;;2091259;28;20527;-60
2022/04/08 00:05:30;;;;;;;6.20;2.67;;;;;;;;;;2098162;28;20183;-59
2022/04/08 00:06:30;;;;;;;10.52;3.58;;;;;;;;;;2098238;28;20602;-59
2022/04/08 00:07:31;;;;;;;5.13;2.85;;;;;;;;;;2089035;28;20195;-54
2022/04/08 00:08:31;;;;;;;6.55;2.80;;;;;;;;;;2079596;28;20172;-54
2022/04/08 00:09:32;;;;;;;3.57;2.33;;;;;;;;;;2079582;28;20263;-58
2022/04/08 00:10:32;;;;;;;6.13;2.95;;;;;;;;;;2081544;28;20207;-57
2022/04/08 00:11:32;;;;;;;5.90;3.20;;;;;;;;;;2097311;28;20174;-57
2022/04/08 00:12:32;;;;;;;8.95;2.63;;;;;;;;;;2095434;28;20213;-55
2022/04/08 00:13:33;;;;;;;7.45;3.33;;;;;;;;;;2098137;28;20482;-56
2022/04/08 00:14:33;;;;;;;6.20;2.10;;;;;;;;;;2097156;28;20185;-57
2022/04/08 00:15:36;;;;;;;4.57;2.97;;;;;;;;;;2097911;28;20226;-51
2022/04/08 00:16:36;;;;;;;6.07;2.90;;;;;;;;;;2088595;28;20541;-58
2022/04/08 00:17:37;;;;;;;7.10;2.33;;;;;;;;;;2080948;28;20177;-55
2022/04/08 00:18:39;;;;;;;7.60;2.90;;;;;;;;;;2097303;28;20182;-53
2022/04/08 00:19:39;;;;;;;4.93;2.60;;;;;;;;;;2097515;28;20206;-58
2022/04/08 00:20:39;;;;;;;4.80;2.47;;;;;;;;;;2097532;28;20287;-58
2022/04/08 00:21:40;;;;;;;3.63;2.35;;;;;;;;;;2091164;28;20560;-56
2022/04/08 00:22:41;;;;;;;5.27;2.83;;;;;;;;;;2097810;28;20179;-59
2022/04/08 00:23:42;;;;;;;2.92;2.20;;;;;;;;;;2085448;28;20175;-52
2022/04/08 00:24:42;;;;;;;4.97;2.60;;;;;;;;;;2078459;28;20181;-56
2022/04/08 00:25:42;;;;;;;4.82;2.90;;;;;;;;;;2089531;28;20187;-58
2022/04/08 00:26:45;;;;;;;13.15;3.42;;;;;;;;;;2089627;28;20191;-56
2022/04/08 00:27:46;;;;;;;9.60;3.60;;;;;;;;;;2090226;28;20755;-59
2022/04/08 00:28:46;;;;;;;5.10;2.95;;;;;;;;;;2077055;28;20264;-54
2022/04/08 00:29:46;;;;;;;6.63;3.05;;;;;;;;;;2079817;28;20218;-53
2022/04/08 00:30:46;;;;;;;5.40;2.58;;;;;;;;;;2080514;28;20253;-54
2022/04/08 00:31:47;;;;;;;3.20;2.90;;;;;;;;;;2083500;28;20260;-55
2022/04/08 00:32:47;;;;;;;2.87;2.10;;;;;;;;;;2092160;28;20200;-57
2022/04/08 00:33:47;;;;;;;5.03;2.47;;;;;;;;;;2097665;28;20689;-56
2022/04/08 00:34:47;;;;;;;5.47;2.20;;;;;;;;;;2097622;28;20258;-58
2022/04/08 00:35:48;;;;;;;7.80;2.85;;;;;;;;;;2096590;28;20559;-57
2022/04/08 00:36:48;;;;;;;3.53;2.60;;;;;;;;;;2089714;28;20672;-55
2022/04/08 00:37:50;;;;;;;4.53;2.67;;;;;;;;;;2087868;28;20175;-55
2022/04/08 00:38:50;;;;;;;7.85;2.55;;;;;;;;;;2092114;28;20180;-55
2022/04/08 00:39:51;;;;;;;9.60;2.93;;;;;;;;;;2098398;28;20179;-57
2022/04/08 00:40:51;;;;;;;6.82;2.40;;;;;;;;;;2098068;28;20206;-56
2022/04/08 00:41:51;;;;;;;5.78;2.55;;;;;;;;;;2097595;28;20171;-54
2022/04/08 00:42:51;;;;;;;5.72;2.72;;;;;;;;;;2098231;28;20696;-56
2022/04/08 00:43:52;;;;;;;7.23;2.73;;;;;;;;;;2097975;28;20202;-56
2022/04/08 00:44:52;;;;;;;7.93;3.10;;;;;;;;;;2080281;28;20179;-55
2022/04/08 00:45:52;;;;;;;6.00;3.00;;;;;;;;;;2080593;28;20195;-55
2022/04/08 00:46:52;;;;;;;9.27;3.00;;;;;;;;;;2088218;28;20175;-55
2022/04/08 00:47:52;;;;;;;19.50;4.27;;;;;;;;;;2085847;28;20247;-55
2022/04/08 00:48:53;;;;;;;4.93;2.57;;;;;;;;;;2084969;28;20168;-55
2022/04/08 00:49:53;;;;;;;4.80;2.10;;;;;;;;;;2087845;28;20718;-59
2022/04/08 00:50:54;;;;;;;4.87;2.07;;;;;;;;;;2088590;28;20580;-56
2022/04/08 00:51:54;;;;;;;4.83;2.33;;;;;;;;;;2080908;28;20271;-56
2022/04/08 00:52:55;;;;;;;7.30;2.53;;;;;;;;;;2088908;28;20172;-58
2022/04/08 00:53:56;;;;;;;5.27;2.63;;;;;;;;;;2097927;28;20187;-55
2022/04/08 00:54:56;;;;;;;5.70;2.67;;;;;;;;;;2097713;28;20179;-56
2022/04/08 00:55:56;;;;;;;5.77;2.37;;;;;;;;;;2098682;28;20201;-57
2022/04/08 00:56:57;;;;;;;3.20;2.90;;;;;;;;;;2092997;28;20171;-55
2022/04/08 00:58:00;;;;;;;2.57;2.30;;;;;;;;;;2095788;28;20227;-59
2022/04/08 00:59:01;;;;;;;8.57;2.40;;;;;;;;;;2096140;28;20167;-59
2022/04/08 01:00:03;;;;;;;4.03;2.60;;;;;;;;;;2089705;28;20176;-57
2022/04/08 01:01:03;;;;;;;2.17;1.93;;;;;;;;;;2085850;28;20203;-55
2022/04/08 01:02:04;;;;;;;3.17;1.90;;;;;;;;;;2096322;28;20181;-57
2022/04/08 01:03:05;;;;;;;3.03;2.23;;;;;;;;;;2089637;28;20194;-56
2022/04/08 01:04:07;;;;;;;4.37;2.07;;;;;;;;;;2089253;28;20723;-60
2022/04/08 01:05:08;;;;;;;3.27;2.40;;;;;;;;;;2092058;28;20213;-54
2022/04/08 01:06:08;;;;;;;3.63;2.00;;;;;;;;;;2090478;28;20222;-53
2022/04/08 01:07:08;;;;;;;6.43;2.00;;;;;;;;;;2099827;28;20174;-61
2022/04/08 01:08:10;;;;;;;3.47;1.70;;;;;;;;;;2097381;28;20210;-61
2022/04/08 01:09:10;;;;;;;3.60;2.20;;;;;;;;;;2090522;28;20628;-61
2022/04/08 01:10:10;;;;;;;2.67;2.23;;;;;;;;;;2085543;28;20225;-61
2022/04/08 01:11:11;;;;;;;3.67;2.13;;;;;;;;;;2084997;28;20176;-60
2022/04/08 01:12:11;;;;;;;4.50;2.30;;;;;;;;;;2086048;28;20618;-59
2022/04/08 01:13:11;;;;;;;8.47;2.60;;;;;;;;;;2095148;28;20178;-60
2022/04/08 01:14:13;;;;;;;5.77;2.00;;;;;;;;;;2097990;28;20197;-61
2022/04/08 01:15:14;;;;;;;2.93;2.47;;;;;;;;;;2089176;28;20187;-60
2022/04/08 01:16:14;;;;;;;2.43;2.10;;;;;;;;;;2083708;28;20176;-60
2022/04/08 01:17:14;;;;;;;2.97;2.53;;;;;;;;;;2080931;28;20681;-57
2022/04/08 01:18:15;;;;;;;4.50;2.43;;;;;;;;;;2080152;28;20690;-58
2022/04/08 01:19:15;;;;;;;4.53;2.57;;;;;;;;;;2082785;28;20179;-58
2022/04/08 01:20:16;;;;;;;4.87;3.00;;;;;;;;;;2084303;28;20179;-56
2022/04/08 01:21:16;;;;;;;6.50;2.83;;;;;;;;;;2094812;28;20182;-59
2022/04/08 01:22:17;;;;;;;5.53;2.80;;;;;;;;;;2096988;28;20203;-59
2022/04/08 01:23:18;;;;;;;3.17;2.70;;;;;;;;;;2098232;28;20179;-57
2022/04/08 01:24:21;;;;;;;4.67;3.03;;;;;;;;;;2097820;28;20635;-58
2022/04/08 01:25:21;;;;;;;5.77;3.20;;;;;;;;;;2093716;28;20554;-59
2022/04/08 01:26:21;;;;;;;7.60;3.03;;;;;;;;;;2092059;28;20238;-56
2022/04/08 01:27:22;;;;;;;7.43;2.90;;;;;;;;;;2095257;28;20191;-58
2022/04/08 01:28:25;;;;;;;4.93;3.23;;;;;;;;;;2088091;28;20179;-59
2022/04/08 01:29:25;;;;;;;5.53;3.83;;;;;;;;;;2088255;28;20194;-58
2022/04/08 01:30:26;;;;;;;6.83;3.60;;;;;;;;;;2097270;28;20564;-59
2022/04/08 01:31:29;;;;;;;6.23;3.13;;;;;;;;;;2096553;28;20178;-55
2022/04/08 01:32:29;;;;;;;7.97;3.37;;;;;;;;;;2097468;28;20192;-57
2022/04/08 01:33:30;;;;;;;5.83;3.17;;;;;;;;;;2097133;28;20187;-55
2022/04/08 01:34:30;;;;;;;5.37;2.90;;;;;;;;;;2086037;28;20251;-57
2022/04/08 01:35:30;;;;;;;4.90;2.33;;;;;;;;;;2088034;28;20180;-57
2022/04/08 01:36:30;;;;;;;6.67;2.80;;;;;;;;;;2097090;28;20190;-56
2022/04/08 01:37:31;;;;;;;8.30;3.10;;;;;;;;;;2097583;28;20268;-60
2022/04/08 01:38:31;;;;;;;6.07;2.80;;;;;;;;;;2096540;28;20228;-58
2022/04/08 01:39:31;;;;;;;4.43;2.90;;;;;;;;;;2097206;28;20236;-55
2022/04/08 01:40:32;;;;;;;5.63;2.87;;;;;;;;;;2087704;28;20650;-56
2022/04/08 01:41:32;;;;;;;6.13;2.97;;;;;;;;;;2088042;28;20179;-61
2022/04/08 01:42:32;;;;;;;4.77;2.13;;;;;;;;;;2095472;28;20195;-57
2022/04/08 01:43:33;;;;;;;6.57;2.93;;;;;;;;;;2096792;28;20179;-59
2022/04/08 01:44:33;;;;;;;5.37;2.80;;;;;;;;;;2092997;28;20563;-55
2022/04/08 01:45:33;;;;;;;2.83;2.47;;;;;;;;;;2097897;28;20647;-58
2022/04/08 01:46:33;;;;;;;4.53;2.70;;;;;;;;;;2094900;28;20700;-56
2022/04/08 01:47:34;;;;;;;3.30;2.47;;;;;;;;;;2096520;28;20179;-59
2022/04/08 01:48:34;;;;;;;4.93;2.27;;;;;;;;;;2087371;28;20183;-57
2022/04/08 01:49:35;;;;;;;5.00;2.67;;;;;;;;;;2088547;28;20183;-58
2022/04/08 01:50:35;;;;;;;4.67;2.40;;;;;;;;;;2093259;28;20636;-58
2022/04/08 01:51:35;;;;;;;4.20;2.37;;;;;;;;;;2092458;28;20163;-58
2022/04/08 01:52:36;;;;;;;6.57;2.27;;;;;;;;;;2095910;28;20194;-55
2022/04/08 01:53:37;;;;;;;4.50;2.07;;;;;;;;;;2097329;28;20189;-55
2022/04/08 01:54:37;;;;;;;3.00;2.13;;;;;;;;;;2083682;28;20176;-56
2022/04/08 01:55:37;;;;;;;2.60;2.40;;;;;;;;;;2088354;28;20163;-58
2022/04/08 01:56:37;;;;;;;4.23;2.40;;;;;;;;;;2096580;28;20171;-55
2022/04/08 01:57:38;;;;;;;2.40;2.00;;;;;;;;;;2097640;28;20209;-61
2022/04/08 01:58:38;;;;;;;3.97;2.50;;;;;;;;;;2096456;28;20167;-61
2022/04/08 01:59:39;;;;;;;3.03;2.73;;;;;;;;;;2092172;28;20206;-59
2022/04/08 02:00:40;;;;;;;3.23;2.30;;;;;;;;;;2092393;28;20274;-61
2022/04/08 02:01:41;;;;;;;2.60;2.40;;;;;;;;;;2097802;28;20182;-58
2022/04/08 02:02:41;;;;;;;5.60;2.87;;;;;;;;;;2091945;28;20265;-57
2022/04/08 02:03:41;;;;;;;2.30;2.20;;;;;;;;;;2097773;28;20587;-56
2022/04/08 02:04:41;;;;;;;3.50;2.47;;;;;;;;;;2091264;28;20212;-59
2022/04/08 02:05:42;;;;;;;5.37;2.37;;;;;;;;;;2095942;28;20643;-59
2022/04/08 02:06:42;;;;;;;2.57;2.20;;;;;;;;;;2093796;28;20194;-57
2022/04/08 02:07:43;;;;;;;6.63;2.87;;;;;;;;;;2097745;28;20175;-57
2022/04/08 02:08:43;;;;;;;3.53;2.50;;;;;;;;;;2096692;28;20190;-58
2022/04/08 02:09:43;;;;;;;3.10;2.80;;;;;;;;;;2095777;28;20210;-60
2022/04/08 02:10:44;;;;;;;3.57;2.20;;;;;;;;;;2097591;28;20210;-54
2022/04/08 02:11:44;;;;;;;1.93;1.83;;;;;;;;;;2096642;28;20171;-58
2022/04/08 02:12:44;;;;;;;2.87;2.50;;;;;;;;;;2097284;28;20167;-58
2022/04/08 02:13:45;;;;;;;4.57;2.20;;;;;;;;;;2097257;28;20186;-57
2022/04/08 02:14:45;;;;;;;2.40;2.13;;;;;;;;;;2097128;28;20210;-57
2022/04/08 02:15:46;;;;;;;3.47;2.27;;;;;;;;;;2095740;28;20175;-55
2022/04/08 02:16:46;;;;;;;4.93;2.30;;;;;;;;;;2091032;28;20163;-58
2022/04/08 02:17:46;;;;;;;3.07;2.30;;;;;;;;;;2096722;28;20205;-60
2022/04/08 02:18:48;;;;;;;2.20;1.97;;;;;;;;;;2097122;28;20581;-54
2022/04/08 02:19:48;;;;;;;2.47;2.10;;;;;;;;;;2086987;28;20210;-58
2022/04/08 02:20:48;;;;;;;4.87;1.90;;;;;;;;;;2088625;28;20215;-61
2022/04/08 02:21:48;;;;;;;3.13;2.30;;;;;;;;;;2097308;28;20282;-58
2022/04/08 02:22:50;;;;;;;2.13;1.93;;;;;;;;;;2090116;28;20191;-57
2022/04/08 02:23:50;;;;;;;2.13;2.00;;;;;;;;;;2088596;28;20187;-59
2022/04/08 02:24:51;;;;;;;4.77;2.10;;;;;;;;;;2085277;28;20183;-60
2022/04/08 02:25:51;;;;;;;4.33;1.93;;;;;;;;;;2089625;28;20329;-57
2022/04/08 02:26:52;;;;;;;2.87;2.00;;;;;;;;;;2099199;28;20166;-60
2022/04/08 02:27:52;;;;;;;2.50;2.00;;;;;;;;;;2098584;28;20237;-59
2022/04/08 02:28:53;;;;;;;2.50;2.27;;;;;;;;;;2089046;28;20191;-59
2022/04/08 02:29:53;;;;;;;2.80;2.03;;;;;;;;;;2088748;28;20273;-59
2022/04/08 02:30:55;;;;;;;2.40;2.20;;;;;;;;;;2096129;28;20210;-60
2022/04/08 02:31:58;;;;;;;2.27;2.03;;;;;;;;;;2097145;28;20787;-59
2022/04/08 02:33:01;;;;;;;2.40;2.03;;;;;;;;;;2102415;28;20191;-60
2022/04/08 02:34:01;;;;;;;3.53;1.80;;;;;;;;;;2100813;28;20522;-58
2022/04/08 02:35:02;;;;;;;2.10;2.00;;;;;;;;;;2096818;28;20186;-60
2022/04/08 02:36:03;;;;;;;2.30;2.00;;;;;;;;;;2096188;28;20184;-60
2022/04/08 02:37:04;;;;;;;2.90;2.20;;;;;;;;;;2089671;28;20184;-53
2022/04/08 02:38:04;;;;;;;2.43;1.63;;;;;;;;;;2089650;28;20183;-59
2022/04/08 02:39:05;;;;;;;1.90;1.80;;;;;;;;;;2090023;28;20184;-58
2022/04/08 02:40:05;;;;;;;2.47;2.27;;;;;;;;;;2089123;28;20255;-55
2022/04/08 02:41:06;;;;;;;3.23;1.97;;;;;;;;;;2089572;28;20837;-58
2022/04/08 02:42:06;;;;;;;2.47;1.90;;;;;;;;;;2089575;28;20191;-60
2022/04/08 02:43:06;;;;;;;2.33;1.97;;;;;;;;;;2094161;28;20184;-56
2022/04/08 02:44:08;;;;;;;2.60;1.87;;;;;;;;;;2096990;28;20328;-59
2022/04/08 02:45:09;;;;;;;2.17;2.03;;;;;;;;;;2098505;28;20179;-57
2022/04/08 02:46:09;;;;;;;2.80;2.03;;;;;;;;;;2096379;28;20175;-57
2022/04/08 02:47:09;;;;;;;1.70;1.60;;;;;;;;;;2098512;28;20175;-59
2022/04/08 02:48:09;;;;;;;1.90;1.80;;;;;;;;;;2098422;28;20191;-60
2022/04/08 02:49:10;;;;;;;1.67;1.67;;;;;;;;;;2089388;28;20180;-57
2022/04/08 02:50:10;;;;;;;1.93;1.77;;;;;;;;;;2078206;28;20215;-57
2022/04/08 02:51:11;;;;;;;1.67;1.57;;;;;;;;;;2078762;28;20222;-59
2022/04/08 02:52:11;;;;;;;1.83;1.33;;;;;;;;;;2089276;28;20587;-57
2022/04/08 02:53:12;;;;;;;2.03;1.93;;;;;;;;;;2098344;28;20613;-61
2022/04/08 02:54:15;;;;;;;4.40;1.80;;;;;;;;;;2102373;28;20274;-59
2022/04/08 02:55:15;;;;;;;1.87;1.70;;;;;;;;;;2100973;28;20186;-57
2022/04/08 02:56:15;;;;;;;1.53;1.40;;;;;;;;;;2089669;28;20609;-60
2022/04/08 02:57:15;;;;;;;1.40;1.40;;;;;;;;;;2089449;28;20624;-60
2022/04/08 02:58:16;;;;;;;1.43;1.30;;;;;;;;;;2098368;28;20186;-59
2022/04/08 02:59:16;;;;;;;1.40;1.40;;;;;;;;;;2098746;28;21760;-59
2022/04/08 03:00:17;;;;;;;1.50;1.40;;;;;;;;;;2080106;28;20176;-59
2022/04/08 03:01:17;;;;;;;1.30;1.30;;;;;;;;;;2080079;28;20274;-59
2022/04/08 03:02:18;;;;;;;1.50;1.40;;;;;;;;;;2089368;28;20317;-60
2022/04/08 03:03:18;;;;;;;1.90;1.40;;;;;;;;;;2074027;28;20233;-59
2022/04/08 03:04:18;;;;;;;1.43;1.43;;;;;;;;;;2080820;28;20228;-59
2022/04/08 03:05:19;;;;;;;1.50;1.50;;;;;;;;;;2099560;28;20599;-59
2022/04/08 03:06:19;;;;;;;1.57;1.57;;;;;;;;;;2098617;28;20182;-56
2022/04/08 03:07:19;;;;;;;4.67;1.47;;;;;;;;;;2089709;28;20278;-58
2022/04/08 03:08:20;;;;;;;1.83;1.70;;;;;;;;;;2089648;28;20542;-56
2022/04/08 03:09:20;;;;;;;1.50;1.50;;;;;;;;;;2093354;28;20520;-57
2022/04/08 03:10:20;;;;;;;1.87;1.77;;;;;;;;;;2096978;28;20252;-61
2022/04/08 03:11:21;;;;;;;1.83;1.40;;;;;;;;;;2092190;28;20725;-61
2022/04/08 03:12:22;;;;;;;1.97;1.63;;;;;;;;;;2097063;28;20171;-57
2022/04/08 03:13:23;;;;;;;1.67;1.60;;;;;;;;;;2098927;28;20215;-62
2022/04/08 03:14:24;;;;;;;1.80;1.70;;;;;;;;;;2097697;28;20163;-61
2022/04/08 03:15:24;;;;;;;1.80;1.80;;;;;;;;;;2098354;28;20662;-58
2022/04/08 03:16:24;;;;;;;1.97;1.83;;;;;;;;;;2098377;28;20170;-61
2022/04/08 03:17:25;;;;;;;3.90;2.37;;;;;;;;;;2098283;28;20270;-59
2022/04/08 03:18:26;;;;;;;2.30;2.03;;;;;;;;;;2097280;28;20175;-57
2022/04/08 03:19:26;;;;;;;2.77;1.63;;;;;;;;;;2097541;28;20179;-60
2022/04/08 03:20:26;;;;;;;3.83;3.17;;;;;;;;;;2096272;28;20990;-57
2022/04/08 03:21:30;;;;;;;2.10;2.00;;;;;;;;;;2089696;28;20164;-59
2022/04/08 03:22:31;;;;;;;2.40;2.20;;;;;;;;;;2089131;28;20186;-59
2022/04/08 03:23:31;;;;;;;2.13;1.70;;;;;;;;;;2097892;28;20171;-63
2022/04/08 03:24:32;;;;;;;2.33;1.90;;;;;;;;;;2096900;28;20183;-58
2022/04/08 03:25:32;;;;;;;5.40;2.07;;;;;;;;;;2089809;28;20663;-58
2022/04/08 03:26:32;;;;;;;4.50;2.63;;;;;;;;;;2089873;28;20190;-58
2022/04/08 03:27:32;;;;;;;5.40;2.00;;;;;;;;;;2089605;28;20176;-58
2022/04/08 03:28:33;;;;;;;3.73;2.30;;;;;;;;;;2090339;28;20199;-57
2022/04/08 03:29:33;;;;;;;1.97;1.80;;;;;;;;;;2096550;28;20215;-58
2022/04/08 03:30:33;;;;;;;1.63;1.57;;;;;;;;;;2099186;28;20232;-58
2022/04/08 03:31:34;;;;;;;2.90;1.67;;;;;;;;;;2091509;28;20188;-63
2022/04/08 03:32:34;;;;;;;2.90;1.80;;;;;;;;;;2090206;28;20168;-59
2022/04/08 03:33:37;;;;;;;2.00;1.70;;;;;;;;;;2098941;28;20612;-60
2022/04/08 03:34:37;;;;;;;3.70;2.43;;;;;;;;;;2090552;28;20190;-56
2022/04/08 03:35:37;;;;;;;6.47;2.20;;;;;;;;;;2098831;28;20210;-56
2022/04/08 03:36:38;;;;;;;4.03;2.07;;;;;;;;;;2097450;28;20254;-59
2022/04/08 03:37:38;;;;;;;3.57;1.80;;;;;;;;;;2092596;28;20171;-59
2022/04/08 03:38:38;;;;;;;3.63;1.70;;;;;;;;;;2098478;28;20206;-60
2022/04/08 03:39:38;;;;;;;2.13;1.67;;;;;;;;;;2093129;28;20183;-58
2022/04/08 03:40:39;;;;;;;2.80;2.10;;;;;;;;;;2097610;28;20644;-58
2022/04/08 03:41:39;;;;;;;3.83;2.00;;;;;;;;;;2090197;28;20225;-56
2022/04/08 03:42:40;;;;;;;5.60;2.27;;;;;;;;;;2089972;28;20280;-57
2022/04/08 03:43:40;;;;;;;3.77;1.87;;;;;;;;;;2089053;28;20207;-59
2022/04/08 03:44:40;;;;;;;2.67;1.83;;;;;;;;;;2097753;28;20166;-62
2022/04/08 03:45:41;;;;;;;4.20;2.07;;;;;;;;;;2095498;28;20222;-58
2022/04/08 03:46:45;;;;;;;4.93;2.03;;;;;;;;;;2096490;28;20218;-59
2022/04/08 03:47:46;;;;;;;3.43;1.90;;;;;;;;;;2098588;28;20182;-61
2022/04/08 03:48:47;;;;;;;3.73;1.83;;;;;;;;;;2098229;28;20179;-59
2022/04/08 03:49:47;;;;;;;4.53;2.03;;;;;;;;;;2098878;28;20182;-59
2022/04/08 03:50:47;;;;;;;4.97;2.27;;;;;;;;;;2098118;28;20862;-57
2022/04/08 03:51:48;;;;;;;6.77;2.70;;;;;;;;;;2096142;28;20167;-54
2022/04/08 03:52:48;;;;;;;3.83;1.77;;;;;;;;;;2098659;28;20185;-61
2022/04/08 03:53:48;;;;;;;3.83;2.17;;;;;;;;;;2096017;28;20185;-55
2022/04/08 03:54:49;;;;;;;2.57;2.13;;;;;;;;;;2094151;28;20177;-60
2022/04/08 03:55:49;;;;;;;4.50;2.13;;;;;;;;;;2097498;28;20186;-60
2022/04/08 03:56:49;;;;;;;2.93;1.77;;;;;;;;;;2098117;28;20582;-57
2022/04/08 03:57:49;;;;;;;4.77;2.33;;;;;;;;;;2096741;28;20183;-58
2022/04/08 03:58:50;;;;;;;6.07;2.10;;;;;;;;;;2098043;28;20220;-59
2022/04/08 03:59:50;;;;;;;6.50;2.33;;;;;;;;;;2097256;28;20666;-58
2022/04/08 04:00:50;;;;;;;4.53;2.83;;;;;;;;;;2089806;28;20206;-54
2022/04/08 04:01:51;;;;;;;6.00;2.40;;;;;;;;;;2088000;28;20711;-59
2022/04/08 04:02:51;;;;;;;3.37;2.17;;;;;;;;;;2101695;28;20583;-60
2022/04/08 04:03:51;;;;;;;8.53;2.70;;;;;;;;;;2103037;28;20248;-60
2022/04/08 04:04:51;;;;;;;3.80;2.20;;;;;;;;;;2100696;28;20216;-59
2022/04/08 04:05:52;;;;;;;3.57;2.00;;;;;;;;;;2097179;28;20289;-60
2022/04/08 04:06:52;;;;;;;3.97;2.43;;;;;;;;;;2091217;28;20180;-60
2022/04/08 04:07:52;;;;;;;5.17;2.00;;;;;;;;;;2091080;28;20192;-61
2022/04/08 04:08:52;;;;;;;4.47;2.10;;;;;;;;;;2097087;28;20254;-61
2022/04/08 04:09:53;;;;;;;4.80;2.27;;;;;;;;;;2094454;28;20209;-61
2022/04/08 04:10:53;;;;;;;4.47;2.63;;;;;;;;;;2099051;28;20214;-59
2022/04/08 04:11:53;;;;;;;6.40;2.40;;;;;;;;;;2093965;28;20168;-55
2022/04/08 04:12:53;;;;;;;6.67;2.40;;;;;;;;;;2098497;28;20179;-53
2022/04/08 04:13:54;;;;;;;5.97;2.40;;;;;;;;;;2093557;28;20213;-57
2022/04/08 04:14:55;;;;;;;5.73;2.80;;;;;;;;;;2097530;28;20163;-57
2022/04/08 04:15:55;;;;;;;7.27;2.80;;;;;;;;;;2092598;28;20261;-57
2022/04/08 04:16:55;;;;;;;7.00;2.40;;;;;;;;;;2097385;28;20574;-59
2022/04/08 04:17:56;;;;;;;5.23;2.30;;;;;;;;;;2093461;28;20252;-59
2022/04/08 04:18:56;;;;;;;7.77;2.57;;;;;;;;;;2096480;28;20233;-59
2022/04/08 04:19:57;;;;;;;6.13;2.83;;;;;;;;;;2093217;28;20659;-58
2022/04/08 04:20:57;;;;;;;9.03;3.20;;;;;;;;;;2111439;23;20206;-53
2022/04/08 04:21:57;;;;;;;5.20;2.80;;;;;;;;;;2077336;28;20236;-59
2022/04/08 04:22:57;;;;;;;4.80;2.47;;;;;;;;;;2074239;28;20204;-59
2022/04/08 04:23:58;;;;;;;4.73;2.40;;;;;;;;;;2076223;28;20206;-56
2022/04/08 04:24:58;;;;;;;7.50;2.60;;;;;;;;;;2075709;28;20173;-61
2022/04/08 04:25:59;;;;;;;5.63;2.50;;;;;;;;;;2078427;28;20191;-57
2022/04/08 04:26:59;;;;;;;4.77;2.63;;;;;;;;;;2072002;28;20550;-61
2022/04/08 04:27:59;;;;;;;15.30;3.50;;;;;;;;;;2080808;28;20208;-59
2022/04/08 04:29:00;;;;;;;4.40;2.67;;;;;;;;;;2080933;28;20256;-59
2022/04/08 04:30:00;;;;;;;6.53;2.57;;;;;;;;;;2081572;28;20180;-58
2022/04/08 04:31:03;;;;;;;6.13;3.20;;;;;;;;;;2079917;28;20251;-55
2022/04/08 04:32:05;;;;;;;7.53;2.80;;;;;;;;;;2080648;28;20831;-59
2022/04/08 04:33:07;;;;;;;3.90;2.57;;;;;;;;;;2080209;28;20184;-60
2022/04/08 04:34:08;;;;;;;9.23;2.67;;;;;;;;;;2080865;28;20180;-59
2022/04/08 04:35:08;;;;;;;6.33;2.93;;;;;;;;;;2080745;28;20192;-56
2022/04/08 04:36:11;;;;;;;6.30;3.40;;;;;;;;;;2081123;28;20175;-58
2022/04/08 04:37:11;;;;;;;5.93;2.90;;;;;;;;;;2072588;28;20177;-60
2022/04/08 04:38:11;;;;;;;11.07;3.70;;;;;;;;;;2080614;28;20646;-57
2022/04/08 04:39:12;;;;;;;5.70;2.50;;;;;;;;;;2081525;28;20176;-61
2022/04/08 04:40:12;;;;;;;8.77;3.10;;;;;;;;;;2080903;28;20211;-57
2022/04/08 04:41:12;;;;;;;6.33;3.77;;;;;;;;;;2081491;28;20681;-56
2022/04/08 04:42:12;;;;;;;12.30;3.50;;;;;;;;;;2080241;28;20195;-61
2022/04/08 04:43:13;;;;;;;6.27;2.97;;;;;;;;;;2078905;28;20172;-57
2022/04/08 04:44:13;;;;;;;7.67;3.20;;;;;;;;;;2078996;28;20175;-60
2022/04/08 04:45:13;;;;;;;6.03;2.97;;;;;;;;;;2077667;28;20766;-52
2022/04/08 04:46:14;;;;;;;7.03;3.47;;;;;;;;;;2080825;28;20267;-58
2022/04/08 04:47:14;;;;;;;8.03;3.20;;;;;;;;;;2080885;28;20184;-59
2022/04/08 04:48:14;;;;;;;6.33;3.00;;;;;;;;;;2078071;28;20272;-57
2022/04/08 04:49:14;;;;;;;12.00;3.20;;;;;;;;;;2079748;28;20542;-61
2022/04/08 04:50:15;;;;;;;8.00;3.17;;;;;;;;;;2077712;28;20179;-60
2022/04/08 04:51:16;;;;;;;6.33;3.27;;;;;;;;;;2078940;28;20188;-59
2022/04/08 04:52:16;;;;;;;9.10;2.70;;;;;;;;;;2081212;28;20176;-58
2022/04/08 04:53:16;;;;;;;8.30;3.07;;;;;;;;;;2081741;28;20183;-59
2022/04/08 04:54:17;;;;;;;5.53;3.40;;;;;;;;;;2076470;28;20328;-59
2022/04/08 04:55:17;;;;;;;5.70;3.37;;;;;;;;;;2078550;28;20176;-58
2022/04/08 04:56:17;;;;;;;8.50;3.40;;;;;;;;;;2080243;28;20164;-62
2022/04/08 04:57:18;;;;;;;6.60;3.07;;;;;;;;;;2080757;28;20643;-59
2022/04/08 04:58:18;;;;;;;9.60;2.90;;;;;;;;;;2080799;28;20275;-60
2022/04/08 04:59:18;;;;;;;9.30;2.50;;;;;;;;;;2081058;28;20263;-58
2022/04/08 05:00:19;;;;;;;12.67;3.83;;;;;;;;;;2077888;28;20283;-59
2022/04/08 05:01:20;;;;;;;11.97;3.80;;;;;;;;;;2080756;28;20192;-59
2022/04/08 05:02:20;;;;;;;11.77;3.97;;;;;;;;;;2072936;28;20185;-60
2022/04/08 05:03:20;;;;;;;11.87;3.33;;;;;;;;;;2072526;28;20320;-61
2022/04/08 05:04:21;;;;;;;5.47;3.17;;;;;;;;;;2079246;28;20199;-58
2022/04/08 05:05:21;;;;;;;7.80;3.57;;;;;;;;;;2080934;28;20230;-60
2022/04/08 05:06:21;;;;;;;4.67;3.63;;;;;;;;;;2080388;28;20661;-60
2022/04/08 05:07:23;;;;;;;6.70;3.10;;;;;;;;;;2078862;28;20183;-59
2022/04/08 05:08:23;;;;;;;5.20;2.83;;;;;;;;;;2076156;28;20550;-61
2022/04/08 05:09:24;;;;;;;7.40;3.27;;;;;;;;;;2080439;28;20168;-59
2022/04/08 05:10:24;;;;;;;7.07;3.30;;;;;;;;;;2075380;28;20700;-59
2022/04/08 05:11:24;;;;;;;7.43;3.93;;;;;;;;;;2080338;28;20835;-56
2022/04/08 05:12:24;;;;;;;5.10;3.20;;;;;;;;;;2081058;28;20207;-58
2022/04/08 05:13:25;;;;;;;7.03;3.57;;;;;;;;;;2080734;28;20179;-55
2022/04/08 05:14:25;;;;;;;8.90;3.50;;;;;;;;;;2079999;28;20184;-52
2022/04/08 05:15:26;;;;;;;8.83;3.40;;;;;;;;;;2080510;28;20181;-57
2022/04/08 05:16:27;;;;;;;10.57;3.87;;;;;;;;;;2081051;28;20271;-57
2022/04/08 05:17:28;;;;;;;2.67;2.30;;;;;;;;;;2081564;28;20180;-56
2022/04/08 05:18:29;;;;;;;7.10;3.23;;;;;;;;;;2080567;28;20207;-61
2022/04/08 05:19:29;;;;;;;9.00;3.63;;;;;;;;;;2080353;28;20172;-57
2022/04/08 05:20:29;;;;;;;7.73;3.40;;;;;;;;;;2082331;28;20245;-58
2022/04/08 05:21:30;;;;;;;6.03;3.40;;;;;;;;;;2087107;28;20251;-57
2022/04/08 05:22:30;;;;;;;7.07;3.27;;;;;;;;;;2079745;28;20188;-59
2022/04/08 05:23:31;;;;;;;7.67;3.73;;;;;;;;;;2080125;28;20225;-61
2022/04/08 05:24:31;;;;;;;9.93;3.90;;;;;;;;;;2076522;28;20645;-59
2022/04/08 05:25:31;;;;;;;9.57;3.63;;;;;;;;;;2080870;28;20251;-58
2022/04/08 05:26:32;;;;;;;8.10;3.70;;;;;;;;;;2074791;28;20188;-60
2022/04/08 05:27:36;;;;;;;6.93;3.70;;;;;;;;;;2079181;28;20881;-56
2022/04/08 05:28:36;;;;;;;6.57;3.50;;;;;;;;;;2080055;28;20187;-58
2022/04/08 05:29:36;;;;;;;7.13;3.20;;;;;;;;;;2079799;28;20203;-57
2022/04/08 05:30:37;;;;;;;10.73;3.70;;;;;;;;;;2078956;28;20239;-59
2022/04/08 05:31:37;;;;;;;10.57;4.10;;;;;;;;;;2080810;28;20196;-62
2022/04/08 05:32:38;;;;;;;10.57;3.70;;;;;;;;;;2080937;28;20168;-55
2022/04/08 05:33:39;;;;;;;9.50;3.87;;;;;;;;;;2080590;28;20176;-58
2022/04/08 05:34:39;;;;;;;14.50;3.40;;;;;;;;;;2073630;28;20239;-58
2022/04/08 05:35:39;;;;;;;10.20;2.67;;;;;;;;;;2081182;28;20546;-56
2022/04/08 05:36:39;;;;;;;7.30;3.20;;;;;;;;;;2080931;28;20741;-60
2022/04/08 05:37:42;;;;;;;3.53;2.70;;;;;;;;;;2081211;28;20654;-55
2022/04/08 05:38:42;;;;;;;9.33;3.10;;;;;;;;;;2081149;28;20191;-57
2022/04/08 05:39:43;;;;;;;11.27;4.10;;;;;;;;;;2080666;28;20192;-54
2022/04/08 05:40:43;;;;;;;10.97;3.63;;;;;;;;;;2080478;28;20314;-57
2022/04/08 05:41:43;;;;;;;8.67;2.93;;;;;;;;;;2080112;28;20239;-60
2022/04/08 05:42:44;;;;;;;10.17;4.07;;;;;;;;;;2079437;28;20666;-60
2022/04/08 05:43:45;;;;;;;7.90;3.03;;;;;;;;;;2074156;28;20181;-51
2022/04/08 05:44:45;;;;;;;8.33;3.93;;;;;;;;;;2078893;28;20640;-59
2022/04/08 05:45:45;;;;;;;9.37;3.70;;;;;;;;;;2074143;28;20203;-58
2022/04/08 05:46:46;;;;;;;10.27;3.33;;;;;;;;;;2080196;28;20700;-60
2022/04/08 05:47:47;;;;;;;17.23;4.20;;;;;;;;;;2080817;28;20538;-57
2022/04/08 05:48:47;;;;;;;4.70;3.20;;;;;;;;;;2080765;28;20188;-57
2022/04/08 05:49:47;;;;;;;9.67;3.73;;;;;;;;;;2080855;28;20172;-58
2022/04/08 05:50:48;;;;;;;4.70;3.07;;;;;;;;;;2079659;28;20875;-61
2022/04/08 05:51:48;;;;;;;4.30;2.67;;;;;;;;;;2080415;28;20665;-56
2022/04/08 05:52:48;;;;;;;8.40;3.37;;;;;;;;;;2079997;28;20172;-59
2022/04/08 05:53:49;;;;;;;11.20;3.87;;;;;;;;;;2080119;28;20196;-57
2022/04/08 05:54:49;;;;;;;10.83;3.17;;;;;;;;;;2079383;28;20598;-60
2022/04/08 05:55:49;;;;;;;12.30;3.90;;;;;;;;;;2078179;28;20190;-54
2022/04/08 05:56:49;;;;;;;6.63;3.23;;;;;;;;;;2079648;28;20164;-57
2022/04/08 05:57:53;;;;;;;7.83;3.30;;;;;;;;;;2081433;28;20172;-59
2022/04/08 05:58:53;;;;;;;11.47;3.77;;;;;;;;;;2079869;28;20652;-58
2022/04/08 05:59:58;;;;;;;5.47;4.00;;;;;;;;;;2079925;28;20226;-55
2022/04/08 06:00:59;;;;;;;7.83;3.30;;;;;;;;;;2079949;28;20184;-60
2022/04/08 06:01:59;;;;;;;5.97;3.57;;;;;;;;;;2081576;28;20172;-57
2022/04/08 06:02:59;;;;;;;8.47;3.37;;;;;;;;;;2080140;28;20207;-57